sensor_id;sensor_type;location;lat;lon;timestamp;temperature;humidity
68109;SHT30;54893;49.864;19.084;2023-11-21T00:03:59;7.83;98.92
68109;SHT30;54893;49.864;19.084;2023-11-21T00:09:01;7.80;98.86
68109;SHT30;54893;49.864;19.084;2023-11-21T00:14:02;7.80;98.82
68109;SHT30;54893;49.864;19.084;2023-11-21T00:19:03;7.83;98.74
68109;SHT30;54893;49.864;19.084;2023-11-21T00:24:03;7.67;99.36
68109;SHT30;54893;49.864;19.084;2023-11-21T00:29:04;7.64;99.37
68109;SHT30;54893;49.864;19.084;2023-11-21T00:34:05;7.61;99.70
68109;SHT30;54893;49.864;19.084;2023-11-21T00:39:05;7.61;99.71
68109;SHT30;54893;49.864;19.084;2023-11-21T00:44:06;7.56;99.99
68109;SHT30;54893;49.864;19.084;2023-11-21T00:49:06;7.51;99.99
68109;SHT30;54893;49.864;19.084;2023-11-21T00:54:07;7.53;99.87
68109;SHT30;54893;49.864;19.084;2023-11-21T00:59:08;7.51;99.93
68109;SHT30;54893;49.864;19.084;2023-11-21T01:04:08;7.53;99.76
68109;SHT30;54893;49.864;19.084;2023-11-21T01:09:08;7.50;99.48
68109;SHT30;54893;49.864;19.084;2023-11-21T01:14:09;7.61;99.34
68109;SHT30;54893;49.864;19.084;2023-11-21T01:19:10;7.49;99.06
68109;SHT30;54893;49.864;19.084;2023-11-21T01:24:10;7.51;99.16
68109;SHT30;54893;49.864;19.084;2023-11-21T01:29:11;7.39;99.25
68109;SHT30;54893;49.864;19.084;2023-11-21T01:34:11;7.34;99.62
68109;SHT30;54893;49.864;19.084;2023-11-21T01:39:11;7.31;99.71
68109;SHT30;54893;49.864;19.084;2023-11-21T01:44:15;7.26;99.73
68109;SHT30;54893;49.864;19.084;2023-11-21T01:49:17;7.19;99.90
68109;SHT30;54893;49.864;19.084;2023-11-21T01:54:18;7.13;99.98
68109;SHT30;54893;49.864;19.084;2023-11-21T01:59:21;7.10;99.99
68109;SHT30;54893;49.864;19.084;2023-11-21T02:04:22;7.06;99.99
68109;SHT30;54893;49.864;19.084;2023-11-21T02:09:25;7.07;99.99
68109;SHT30;54893;49.864;19.084;2023-11-21T02:14:27;7.05;99.99
68109;SHT30;54893;49.864;19.084;2023-11-21T02:19:28;7.00;99.99
68109;SHT30;54893;49.864;19.084;2023-11-21T02:24:29;7.02;99.99
68109;SHT30;54893;49.864;19.084;2023-11-21T02:29:30;7.00;99.99
68109;SHT30;54893;49.864;19.084;2023-11-21T02:34:30;7.06;99.99
68109;SHT30;54893;49.864;19.084;2023-11-21T02:39:31;7.05;99.99
68109;SHT30;54893;49.864;19.084;2023-11-21T02:44:31;7.00;99.99
68109;SHT30;54893;49.864;19.084;2023-11-21T02:49:32;7.15;99.99
68109;SHT30;54893;49.864;19.084;2023-11-21T02:54:34;7.20;99.74
68109;SHT30;54893;49.864;19.084;2023-11-21T02:59:36;7.17;99.53
68109;SHT30;54893;49.864;19.084;2023-11-21T03:04:36;7.17;99.54
68109;SHT30;54893;49.864;19.084;2023-11-21T03:09:37;7.12;99.41
68109;SHT30;54893;49.864;19.084;2023-11-21T03:14:38;7.09;99.52
68109;SHT30;54893;49.864;19.084;2023-11-21T03:19:41;7.09;99.49
68109;SHT30;54893;49.864;19.084;2023-11-21T03:24:41;7.17;99.13
68109;SHT30;54893;49.864;19.084;2023-11-21T03:29:42;7.15;99.16
68109;SHT30;54893;49.864;19.084;2023-11-21T03:34:56;7.12;99.15
68109;SHT30;54893;49.864;19.084;2023-11-21T03:39:57;7.17;98.98
68109;SHT30;54893;49.864;19.084;2023-11-21T03:44:58;7.19;98.82
68109;SHT30;54893;49.864;19.084;2023-11-21T03:49:58;7.20;98.52
68109;SHT30;54893;49.864;19.084;2023-11-21T03:54:59;7.17;98.59
68109;SHT30;54893;49.864;19.084;2023-11-21T03:59:59;7.30;97.94
68109;SHT30;54893;49.864;19.084;2023-11-21T04:05:00;7.22;98.18
68109;SHT30;54893;49.864;19.084;2023-11-21T04:10:01;7.20;98.23
68109;SHT30;54893;49.864;19.084;2023-11-21T04:15:03;7.23;98.07
68109;SHT30;54893;49.864;19.084;2023-11-21T04:20:05;7.27;97.72
68109;SHT30;54893;49.864;19.084;2023-11-21T04:25:13;7.31;97.57
68109;SHT30;54893;49.864;19.084;2023-11-21T04:30:14;7.37;97.14
68109;SHT30;54893;49.864;19.084;2023-11-21T04:35:14;7.37;96.94
68109;SHT30;54893;49.864;19.084;2023-11-21T04:40:15;7.36;96.94
68109;SHT30;54893;49.864;19.084;2023-11-21T04:45:15;7.31;96.99
68109;SHT30;54893;49.864;19.084;2023-11-21T04:50:16;7.33;96.90
68109;SHT30;54893;49.864;19.084;2023-11-21T04:55:16;7.31;96.73
68109;SHT30;54893;49.864;19.084;2023-11-21T05:00:17;7.29;96.74
68109;SHT30;54893;49.864;19.084;2023-11-21T05:05:18;7.34;96.56
68109;SHT30;54893;49.864;19.084;2023-11-21T05:10:18;7.29;96.74
68109;SHT30;54893;49.864;19.084;2023-11-21T05:15:18;7.39;96.23
68109;SHT30;54893;49.864;19.084;2023-11-21T05:20:19;7.42;95.93
68109;SHT30;54893;49.864;19.084;2023-11-21T05:25:23;7.39;95.85
68109;SHT30;54893;49.864;19.084;2023-11-21T05:30:24;7.36;95.94
68109;SHT30;54893;49.864;19.084;2023-11-21T05:35:24;7.34;95.99
68109;SHT30;54893;49.864;19.084;2023-11-21T05:40:24;7.34;96.00
68109;SHT30;54893;49.864;19.084;2023-11-21T05:45:29;7.39;95.80
68109;SHT30;54893;49.864;19.084;2023-11-21T05:50:30;7.33;95.83
68109;SHT30;54893;49.864;19.084;2023-11-21T05:55:31;7.27;95.96
68109;SHT30;54893;49.864;19.084;2023-11-21T06:00:31;7.29;95.82
68109;SHT30;54893;49.864;19.084;2023-11-21T06:05:32;7.20;96.06
68109;SHT30;54893;49.864;19.084;2023-11-21T06:10:33;7.20;96.21
68109;SHT30;54893;49.864;19.084;2023-11-21T06:15:34;7.40;95.71
68109;SHT30;54893;49.864;19.084;2023-11-21T06:20:34;7.16;96.13
68109;SHT30;54893;49.864;19.084;2023-11-21T06:25:37;7.12;96.55
68109;SHT30;54893;49.864;19.084;2023-11-21T06:30:38;7.23;96.21
68109;SHT30;54893;49.864;19.084;2023-11-21T06:35:38;7.22;96.31
68109;SHT30;54893;49.864;19.084;2023-11-21T06:40:38;7.23;96.46
68109;SHT30;54893;49.864;19.084;2023-11-21T06:45:39;7.26;96.53
68109;SHT30;54893;49.864;19.084;2023-11-21T06:50:39;7.22;96.59
68109;SHT30;54893;49.864;19.084;2023-11-21T06:55:39;7.26;96.60
68109;SHT30;54893;49.864;19.084;2023-11-21T07:00:40;7.30;96.45
68109;SHT30;54893;49.864;19.084;2023-11-21T07:05:41;7.29;96.59
68109;SHT30;54893;49.864;19.084;2023-11-21T07:10:41;7.31;96.49
68109;SHT30;54893;49.864;19.084;2023-11-21T07:15:42;7.36;96.42
68109;SHT30;54893;49.864;19.084;2023-11-21T07:20:43;7.43;96.20
68109;SHT30;54893;49.864;19.084;2023-11-21T07:25:44;7.49;96.13
68109;SHT30;54893;49.864;19.084;2023-11-21T07:30:44;7.56;96.14
68109;SHT30;54893;49.864;19.084;2023-11-21T07:35:44;7.57;96.21
68109;SHT30;54893;49.864;19.084;2023-11-21T07:40:45;7.56;96.09
68109;SHT30;54893;49.864;19.084;2023-11-21T07:45:45;7.66;96.06
68109;SHT30;54893;49.864;19.084;2023-11-21T07:50:45;7.73;95.97
68109;SHT30;54893;49.864;19.084;2023-11-21T07:55:47;7.84;95.89
68109;SHT30;54893;49.864;19.084;2023-11-21T08:00:49;7.97;96.03
68109;SHT30;54893;49.864;19.084;2023-11-21T08:05:49;8.08;95.81
68109;SHT30;54893;49.864;19.084;2023-11-21T08:10:50;8.37;94.88
68109;SHT30;54893;49.864;19.084;2023-11-21T08:15:57;8.52;94.94
68109;SHT30;54893;49.864;19.084;2023-11-21T08:21:02;8.56;94.11
68109;SHT30;54893;49.864;19.084;2023-11-21T08:26:04;8.68;94.07
68109;SHT30;54893;49.864;19.084;2023-11-21T08:31:05;8.59;93.99
68109;SHT30;54893;49.864;19.084;2023-11-21T08:36:09;8.46;93.70
68109;SHT30;54893;49.864;19.084;2023-11-21T08:41:11;8.38;93.64
68109;SHT30;54893;49.864;19.084;2023-11-21T08:46:11;8.42;93.28
68109;SHT30;54893;49.864;19.084;2023-11-21T08:51:12;8.49;93.25
68109;SHT30;54893;49.864;19.084;2023-11-21T08:56:13;8.53;93.36
68109;SHT30;54893;49.864;19.084;2023-11-21T09:01:15;8.53;92.65
68109;SHT30;54893;49.864;19.084;2023-11-21T09:06:15;8.60;92.12
68109;SHT30;54893;49.864;19.084;2023-11-21T09:11:17;8.70;90.91
68109;SHT30;54893;49.864;19.084;2023-11-21T09:16:17;8.77;90.92
68109;SHT30;54893;49.864;19.084;2023-11-21T09:21:17;8.76;89.95
68109;SHT30;54893;49.864;19.084;2023-11-21T09:26:18;8.77;90.31
68109;SHT30;54893;49.864;19.084;2023-11-21T09:31:18;8.56;90.62
68109;SHT30;54893;49.864;19.084;2023-11-21T09:36:22;8.59;90.93
68109;SHT30;54893;49.864;19.084;2023-11-21T09:41:58;8.52;90.97
68109;SHT30;54893;49.864;19.084;2023-11-21T09:46:59;8.50;91.07
68109;SHT30;54893;49.864;19.084;2023-11-21T09:52:01;8.53;91.00
68109;SHT30;54893;49.864;19.084;2023-11-21T09:57:07;8.65;90.89
68109;SHT30;54893;49.864;19.084;2023-11-21T10:02:09;8.76;91.12
68109;SHT30;54893;49.864;19.084;2023-11-21T10:07:16;8.72;90.80
68109;SHT30;54893;49.864;19.084;2023-11-21T10:12:18;8.72;90.39
68109;SHT30;54893;49.864;19.084;2023-11-21T10:17:20;8.76;90.71
68109;SHT30;54893;49.864;19.084;2023-11-21T10:22:21;8.56;90.34
68109;SHT30;54893;49.864;19.084;2023-11-21T10:27:22;8.62;90.84
68109;SHT30;54893;49.864;19.084;2023-11-21T10:32:28;8.86;89.96
68109;SHT30;54893;49.864;19.084;2023-11-21T10:37:29;8.73;90.13
68109;SHT30;54893;49.864;19.084;2023-11-21T10:42:32;8.86;90.34
68109;SHT30;54893;49.864;19.084;2023-11-21T10:47:32;8.97;90.13
68109;SHT30;54893;49.864;19.084;2023-11-21T10:52:33;8.99;89.67
68109;SHT30;54893;49.864;19.084;2023-11-21T10:57:35;8.96;89.69
68109;SHT30;54893;49.864;19.084;2023-11-21T11:02:36;8.93;89.70
68109;SHT30;54893;49.864;19.084;2023-11-21T11:07:38;9.03;89.45
68109;SHT30;54893;49.864;19.084;2023-11-21T11:12:41;8.94;88.63
68109;SHT30;54893;49.864;19.084;2023-11-21T11:17:41;8.72;89.77
68109;SHT30;54893;49.864;19.084;2023-11-21T11:28:07;8.92;90.08
68109;SHT30;54893;49.864;19.084;2023-11-21T11:38:37;8.79;88.27
68109;SHT30;54893;49.864;19.084;2023-11-21T11:43:38;8.82;88.59
68109;SHT30;54893;49.864;19.084;2023-11-21T11:48:44;8.79;89.03
68109;SHT30;54893;49.864;19.084;2023-11-21T11:53:46;8.77;88.52
68109;SHT30;54893;49.864;19.084;2023-11-21T11:58:48;8.84;88.31
68109;SHT30;54893;49.864;19.084;2023-11-21T12:09:21;8.56;89.16
68109;SHT30;54893;49.864;19.084;2023-11-21T12:14:23;8.48;89.39
68109;SHT30;54893;49.864;19.084;2023-11-21T12:19:23;8.42;89.88
68109;SHT30;54893;49.864;19.084;2023-11-21T12:24:25;8.46;89.82
68109;SHT30;54893;49.864;19.084;2023-11-21T12:29:29;8.44;90.33
68109;SHT30;54893;49.864;19.084;2023-11-21T12:34:29;8.42;90.41
68109;SHT30;54893;49.864;19.084;2023-11-21T12:39:31;8.37;90.72
68109;SHT30;54893;49.864;19.084;2023-11-21T12:44:31;8.31;91.25
68109;SHT30;54893;49.864;19.084;2023-11-21T12:49:32;8.18;91.65
68109;SHT30;54893;49.864;19.084;2023-11-21T12:54:34;8.11;92.57
68109;SHT30;54893;49.864;19.084;2023-11-21T12:59:35;7.94;93.70
68109;SHT30;54893;49.864;19.084;2023-11-21T13:04:35;7.85;94.10
68109;SHT30;54893;49.864;19.084;2023-11-21T13:09:36;7.60;94.09
68109;SHT30;54893;49.864;19.084;2023-11-21T13:14:36;7.49;93.86
68109;SHT30;54893;49.864;19.084;2023-11-21T13:19:37;7.30;94.70
68109;SHT30;54893;49.864;19.084;2023-11-21T13:24:37;7.19;95.08
68109;SHT30;54893;49.864;19.084;2023-11-21T13:29:37;7.07;95.93
68109;SHT30;54893;49.864;19.084;2023-11-21T13:34:38;7.10;95.21
68109;SHT30;54893;49.864;19.084;2023-11-21T13:39:39;7.09;95.28
68109;SHT30;54893;49.864;19.084;2023-11-21T13:44:44;7.09;95.25
68109;SHT30;54893;49.864;19.084;2023-11-21T13:49:48;7.22;94.57
68109;SHT30;54893;49.864;19.084;2023-11-21T13:54:49;7.17;94.39
68109;SHT30;54893;49.864;19.084;2023-11-21T13:59:50;6.96;94.88
68109;SHT30;54893;49.864;19.084;2023-11-21T14:04:51;6.93;95.33
68109;SHT30;54893;49.864;19.084;2023-11-21T14:09:56;7.02;95.39
68109;SHT30;54893;49.864;19.084;2023-11-21T14:14:56;6.91;95.76
68109;SHT30;54893;49.864;19.084;2023-11-21T14:19:56;6.93;95.92
68109;SHT30;54893;49.864;19.084;2023-11-21T14:24:57;6.95;95.95
68109;SHT30;54893;49.864;19.084;2023-11-21T14:30:00;6.92;96.31
68109;SHT30;54893;49.864;19.084;2023-11-21T14:35:02;7.00;95.79
68109;SHT30;54893;49.864;19.084;2023-11-21T14:40:04;6.85;96.06
68109;SHT30;54893;49.864;19.084;2023-11-21T14:45:05;6.78;96.31
68109;SHT30;54893;49.864;19.084;2023-11-21T14:50:07;6.76;96.46
68109;SHT30;54893;49.864;19.084;2023-11-21T14:55:29;6.69;96.43
68109;SHT30;54893;49.864;19.084;2023-11-21T15:00:39;6.65;96.70
68109;SHT30;54893;49.864;19.084;2023-11-21T15:05:44;6.64;96.72
68109;SHT30;54893;49.864;19.084;2023-11-21T15:10:45;6.61;96.71
68109;SHT30;54893;49.864;19.084;2023-11-21T15:15:47;6.59;96.83
68109;SHT30;54893;49.864;19.084;2023-11-21T15:20:47;6.67;96.81
68109;SHT30;54893;49.864;19.084;2023-11-21T15:25:48;6.72;96.57
68109;SHT30;54893;49.864;19.084;2023-11-21T15:30:48;6.75;96.47
68109;SHT30;54893;49.864;19.084;2023-11-21T15:35:51;6.75;96.50
68109;SHT30;54893;49.864;19.084;2023-11-21T15:40:51;6.76;96.43
68109;SHT30;54893;49.864;19.084;2023-11-21T15:45:52;6.79;96.32
68109;SHT30;54893;49.864;19.084;2023-11-21T15:50:54;6.85;96.23
68109;SHT30;54893;49.864;19.084;2023-11-21T15:55:57;6.82;96.33
68109;SHT30;54893;49.864;19.084;2023-11-21T16:00:58;6.73;96.53
68109;SHT30;54893;49.864;19.084;2023-11-21T16:05:59;6.69;96.76
68109;SHT30;54893;49.864;19.084;2023-11-21T16:11:00;6.68;97.14
68109;SHT30;54893;49.864;19.084;2023-11-21T16:16:01;6.68;97.30
68109;SHT30;54893;49.864;19.084;2023-11-21T16:21:01;6.62;97.53
68109;SHT30;54893;49.864;19.084;2023-11-21T16:26:02;6.61;97.93
68109;SHT30;54893;49.864;19.084;2023-11-21T16:31:05;6.58;98.03
68109;SHT30;54893;49.864;19.084;2023-11-21T16:36:05;6.49;98.69
68109;SHT30;54893;49.864;19.084;2023-11-21T16:41:06;6.52;98.55
68109;SHT30;54893;49.864;19.084;2023-11-21T16:46:11;6.51;98.85
68109;SHT30;54893;49.864;19.084;2023-11-21T16:51:11;6.61;98.88
68109;SHT30;54893;49.864;19.084;2023-11-21T16:56:17;6.56;99.27
68109;SHT30;54893;49.864;19.084;2023-11-21T17:01:17;6.62;99.47
68109;SHT30;54893;49.864;19.084;2023-11-21T17:06:18;6.53;99.54
68109;SHT30;54893;49.864;19.084;2023-11-21T17:11:18;6.61;99.72
68109;SHT30;54893;49.864;19.084;2023-11-21T17:16:19;6.62;99.77
68109;SHT30;54893;49.864;19.084;2023-11-21T17:21:20;6.62;99.87
68109;SHT30;54893;49.864;19.084;2023-11-21T17:26:20;6.62;99.94
68109;SHT30;54893;49.864;19.084;2023-11-21T17:31:21;6.62;99.99
68109;SHT30;54893;49.864;19.084;2023-11-21T17:36:22;6.64;99.99
68109;SHT30;54893;49.864;19.084;2023-11-21T17:41:23;6.69;99.99
68109;SHT30;54893;49.864;19.084;2023-11-21T17:46:24;6.62;99.99
68109;SHT30;54893;49.864;19.084;2023-11-21T17:51:25;6.78;99.99
68109;SHT30;54893;49.864;19.084;2023-11-21T17:56:25;6.67;99.99
68109;SHT30;54893;49.864;19.084;2023-11-21T18:01:26;6.71;99.99
68109;SHT30;54893;49.864;19.084;2023-11-21T18:06:33;6.68;99.99
68109;SHT30;54893;49.864;19.084;2023-11-21T18:11:34;6.65;99.99
68109;SHT30;54893;49.864;19.084;2023-11-21T18:16:35;6.68;99.99
68109;SHT30;54893;49.864;19.084;2023-11-21T18:21:38;6.67;99.99
68109;SHT30;54893;49.864;19.084;2023-11-21T18:26:40;6.65;99.99
68109;SHT30;54893;49.864;19.084;2023-11-21T18:31:40;6.75;99.99
68109;SHT30;54893;49.864;19.084;2023-11-21T18:36:43;6.71;99.99
68109;SHT30;54893;49.864;19.084;2023-11-21T18:41:44;6.65;99.99
68109;SHT30;54893;49.864;19.084;2023-11-21T18:46:44;6.71;99.99
68109;SHT30;54893;49.864;19.084;2023-11-21T18:51:45;6.68;99.99
68109;SHT30;54893;49.864;19.084;2023-11-21T18:56:45;6.67;99.99
68109;SHT30;54893;49.864;19.084;2023-11-21T19:01:46;6.64;99.99
68109;SHT30;54893;49.864;19.084;2023-11-21T19:06:47;6.59;99.99
68109;SHT30;54893;49.864;19.084;2023-11-21T19:11:47;6.65;99.99
68109;SHT30;54893;49.864;19.084;2023-11-21T19:16:47;6.68;99.99
68109;SHT30;54893;49.864;19.084;2023-11-21T19:21:49;6.68;99.99
68109;SHT30;54893;49.864;19.084;2023-11-21T19:26:49;6.67;99.99
68109;SHT30;54893;49.864;19.084;2023-11-21T19:31:49;5.98;99.99
68109;SHT30;54893;49.864;19.084;2023-11-21T19:36:50;5.71;99.99
68109;SHT30;54893;49.864;19.084;2023-11-21T19:41:51;5.67;99.99
68109;SHT30;54893;49.864;19.084;2023-11-21T19:46:52;5.25;99.99
68109;SHT30;54893;49.864;19.084;2023-11-21T19:51:52;4.99;99.99
68109;SHT30;54893;49.864;19.084;2023-11-21T19:56:52;4.89;99.99
68109;SHT30;54893;49.864;19.084;2023-11-21T20:01:53;4.64;99.99
68109;SHT30;54893;49.864;19.084;2023-11-21T20:06:53;4.55;99.99
68109;SHT30;54893;49.864;19.084;2023-11-21T20:11:56;4.37;99.99
68109;SHT30;54893;49.864;19.084;2023-11-21T20:16:58;4.37;99.99
68109;SHT30;54893;49.864;19.084;2023-11-21T20:21:59;4.25;99.99
68109;SHT30;54893;49.864;19.084;2023-11-21T20:26:59;4.24;99.99
68109;SHT30;54893;49.864;19.084;2023-11-21T20:32:03;4.13;99.99
68109;SHT30;54893;49.864;19.084;2023-11-21T20:37:05;4.01;99.99
68109;SHT30;54893;49.864;19.084;2023-11-21T20:42:06;3.91;99.99
68109;SHT30;54893;49.864;19.084;2023-11-21T20:47:06;3.58;99.99
68109;SHT30;54893;49.864;19.084;2023-11-21T20:52:07;3.55;99.99
68109;SHT30;54893;49.864;19.084;2023-11-21T20:57:07;3.49;99.99
68109;SHT30;54893;49.864;19.084;2023-11-21T21:02:09;3.28;99.99
68109;SHT30;54893;49.864;19.084;2023-11-21T21:07:10;2.94;99.99
68109;SHT30;54893;49.864;19.084;2023-11-21T21:12:10;3.01;99.99
68109;SHT30;54893;49.864;19.084;2023-11-21T21:17:11;2.80;99.99
68109;SHT30;54893;49.864;19.084;2023-11-21T21:22:12;2.88;99.99
68109;SHT30;54893;49.864;19.084;2023-11-21T21:27:16;2.61;99.99
68109;SHT30;54893;49.864;19.084;2023-11-21T21:32:16;2.62;99.99
68109;SHT30;54893;49.864;19.084;2023-11-21T21:37:17;2.40;99.99
68109;SHT30;54893;49.864;19.084;2023-11-21T21:42:17;2.10;99.99
68109;SHT30;54893;49.864;19.084;2023-11-21T21:47:17;2.31;99.99
68109;SHT30;54893;49.864;19.084;2023-11-21T21:52:18;2.17;99.99
68109;SHT30;54893;49.864;19.084;2023-11-21T21:57:18;1.72;99.99
68109;SHT30;54893;49.864;19.084;2023-11-21T22:02:19;1.36;99.99
68109;SHT30;54893;49.864;19.084;2023-11-21T22:07:19;0.99;99.99
68109;SHT30;54893;49.864;19.084;2023-11-21T22:12:20;0.94;99.99
68109;SHT30;54893;49.864;19.084;2023-11-21T22:17:20;0.94;99.99
68109;SHT30;54893;49.864;19.084;2023-11-21T22:22:20;0.91;99.99
68109;SHT30;54893;49.864;19.084;2023-11-21T22:27:21;0.92;99.99
68109;SHT30;54893;49.864;19.084;2023-11-21T22:32:21;0.80;99.99
68109;SHT30;54893;49.864;19.084;2023-11-21T22:37:22;0.78;99.99
68109;SHT30;54893;49.864;19.084;2023-11-21T22:42:22;0.74;99.99
68109;SHT30;54893;49.864;19.084;2023-11-21T22:47:22;0.72;99.99
68109;SHT30;54893;49.864;19.084;2023-11-21T22:52:23;0.82;99.99
68109;SHT30;54893;49.864;19.084;2023-11-21T22:57:24;0.81;99.99
68109;SHT30;54893;49.864;19.084;2023-11-21T23:02:25;0.68;99.99
68109;SHT30;54893;49.864;19.084;2023-11-21T23:07:25;0.67;99.99
68109;SHT30;54893;49.864;19.084;2023-11-21T23:12:25;0.61;99.99
68109;SHT30;54893;49.864;19.084;2023-11-21T23:17:27;0.44;99.99
68109;SHT30;54893;49.864;19.084;2023-11-21T23:22:28;0.44;99.99
68109;SHT30;54893;49.864;19.084;2023-11-21T23:27:28;0.39;99.99
68109;SHT30;54893;49.864;19.084;2023-11-21T23:32:28;0.33;99.99
68109;SHT30;54893;49.864;19.084;2023-11-21T23:37:29;0.33;99.99
68109;SHT30;54893;49.864;19.084;2023-11-21T23:42:29;0.28;99.99
68109;SHT30;54893;49.864;19.084;2023-11-21T23:47:29;0.33;99.99
68109;SHT30;54893;49.864;19.084;2023-11-21T23:52:30;0.37;99.99
68109;SHT30;54893;49.864;19.084;2023-11-21T23:57:30;0.31;99.99
